LFMP/PGF METAR and TAF weather

Enter ICAO airport designator
Station Type Date Time Source
LFMP METAR 2022/06/28 08:00 UTC NOAA

LFMP 280800Z AUTO 30014KT 270V330 CAVOK 24/11 Q1017 TEMPO 31018G28KT


Station Type Date Time Source
LFMP Decoded METAR 2022/06/28 08:00 UTC NOAA

Perpignan, France (LFMP) 42-44N 002-52E 48M
Jun 28, 2022 - 04:00 AM EDT / 2022.06.28 0800 UTC
Wind: from the WNW (300 degrees) at 16 MPH (14 KT) (direction variable):0
Visibility: greater than 7 mile(s):0
Temperature: 75 F (24 C)
Dew Point: 51 F (11 C)
Relative Humidity: 43%
Pressure (altimeter): 30.03 in. Hg (1017 hPa)
ob: LFMP 280800Z AUTO 30014KT 270V330 CAVOK 24/11 Q1017 TEMPO 31018G28KT
cycle: 8

Station Type Date Time Source
LFMP TAF 2022/06/28 09:22 UTC NOAA

TAF LFMP 280800Z 2809/2909 32020G32KT 9999 FEW050 SCT075
BECMG 2813/2815 32012KT
BECMG 2822/2824 28005KT

Example: see airport list